Terminal Aerodrome Forecast
Issued by NWS

Home | Current Version | Previous Version | Text Only | Print | Product List | Glossary On
Versions: 1 2 3 4 5 6 7 8 9 10 11 12
000
FTUS43 KLSX 111700
TAFUIN
TAF
KUIN 111720Z 1118/1218 17011KT P6SM SCT040 BKN250
     FM120000 17008KT P6SM SCT070 BKN150
     FM121200 22008KT P6SM BKN120=

USA.gov is the U.S. government's official web portal to all federal, state and local government web resources and services.